sensor_id;sensor_type;location;lat;lon;timestamp;temperature;humidity
18229;DHT22;9239;50.932;3.142;2022-08-19T00:01:28;18.00;99.90
18229;DHT22;9239;50.932;3.142;2022-08-19T00:03:56;18.00;99.90
18229;DHT22;9239;50.932;3.142;2022-08-19T00:06:23;17.90;99.90
18229;DHT22;9239;50.932;3.142;2022-08-19T00:08:50;18.00;99.90
18229;DHT22;9239;50.932;3.142;2022-08-19T00:11:18;17.90;99.90
18229;DHT22;9239;50.932;3.142;2022-08-19T00:13:46;17.80;99.90
18229;DHT22;9239;50.932;3.142;2022-08-19T00:16:15;17.90;99.90
18229;DHT22;9239;50.932;3.142;2022-08-19T00:18:42;17.80;99.90
18229;DHT22;9239;50.932;3.142;2022-08-19T00:21:09;17.80;99.90
18229;DHT22;9239;50.932;3.142;2022-08-19T00:23:36;17.70;99.90
18229;DHT22;9239;50.932;3.142;2022-08-19T00:26:04;17.70;99.90
18229;DHT22;9239;50.932;3.142;2022-08-19T00:28:31;17.60;99.90
18229;DHT22;9239;50.932;3.142;2022-08-19T00:30:58;17.60;99.90
18229;DHT22;9239;50.932;3.142;2022-08-19T00:33:27;17.50;99.90
18229;DHT22;9239;50.932;3.142;2022-08-19T00:35:55;17.50;99.90
18229;DHT22;9239;50.932;3.142;2022-08-19T00:38:22;17.50;99.90
18229;DHT22;9239;50.932;3.142;2022-08-19T00:40:49;17.50;99.90
18229;DHT22;9239;50.932;3.142;2022-08-19T00:43:19;17.50;99.90
18229;DHT22;9239;50.932;3.142;2022-08-19T00:45:47;17.50;99.90
18229;DHT22;9239;50.932;3.142;2022-08-19T00:48:15;17.50;99.90
18229;DHT22;9239;50.932;3.142;2022-08-19T00:50:45;17.50;99.90
18229;DHT22;9239;50.932;3.142;2022-08-19T00:53:15;17.50;99.90
18229;DHT22;9239;50.932;3.142;2022-08-19T00:55:46;17.50;99.90
18229;DHT22;9239;50.932;3.142;2022-08-19T00:58:16;17.40;99.90
18229;DHT22;9239;50.932;3.142;2022-08-19T01:00:44;17.40;99.90
18229;DHT22;9239;50.932;3.142;2022-08-19T01:03:15;17.50;99.90
18229;DHT22;9239;50.932;3.142;2022-08-19T01:05:45;17.50;99.90
18229;DHT22;9239;50.932;3.142;2022-08-19T01:08:14;17.40;99.90
18229;DHT22;9239;50.932;3.142;2022-08-19T01:10:45;17.40;99.90
18229;DHT22;9239;50.932;3.142;2022-08-19T01:13:14;17.30;99.90
18229;DHT22;9239;50.932;3.142;2022-08-19T01:15:44;17.30;99.90
18229;DHT22;9239;50.932;3.142;2022-08-19T01:18:15;17.20;99.90
18229;DHT22;9239;50.932;3.142;2022-08-19T01:20:45;17.20;99.90
18229;DHT22;9239;50.932;3.142;2022-08-19T01:23:14;17.20;99.90
18229;DHT22;9239;50.932;3.142;2022-08-19T01:25:45;17.20;99.90
18229;DHT22;9239;50.932;3.142;2022-08-19T01:28:19;17.20;99.90
18229;DHT22;9239;50.932;3.142;2022-08-19T01:30:47;17.10;99.90
18229;DHT22;9239;50.932;3.142;2022-08-19T01:33:15;17.20;99.90
18229;DHT22;9239;50.932;3.142;2022-08-19T01:35:42;17.20;99.90
18229;DHT22;9239;50.932;3.142;2022-08-19T01:38:22;17.10;99.90
18229;DHT22;9239;50.932;3.142;2022-08-19T01:40:50;17.10;99.90
18229;DHT22;9239;50.932;3.142;2022-08-19T01:43:17;17.10;99.90
18229;DHT22;9239;50.932;3.142;2022-08-19T01:45:45;17.10;99.90
18229;DHT22;9239;50.932;3.142;2022-08-19T01:48:13;17.10;99.90
18229;DHT22;9239;50.932;3.142;2022-08-19T01:50:40;17.10;99.90
18229;DHT22;9239;50.932;3.142;2022-08-19T01:53:10;17.20;99.90
18229;DHT22;9239;50.932;3.142;2022-08-19T01:55:40;17.10;99.90
18229;DHT22;9239;50.932;3.142;2022-08-19T01:58:11;17.10;99.90
18229;DHT22;9239;50.932;3.142;2022-08-19T02:00:38;17.10;99.90
18229;DHT22;9239;50.932;3.142;2022-08-19T02:03:06;17.10;99.90
18229;DHT22;9239;50.932;3.142;2022-08-19T02:05:34;17.10;99.90
18229;DHT22;9239;50.932;3.142;2022-08-19T02:08:00;17.00;99.90
18229;DHT22;9239;50.932;3.142;2022-08-19T02:10:27;17.10;99.90
18229;DHT22;9239;50.932;3.142;2022-08-19T02:12:56;17.00;99.90
18229;DHT22;9239;50.932;3.142;2022-08-19T02:15:23;17.00;99.90
18229;DHT22;9239;50.932;3.142;2022-08-19T02:17:51;17.00;99.90
18229;DHT22;9239;50.932;3.142;2022-08-19T02:20:18;17.00;99.90
18229;DHT22;9239;50.932;3.142;2022-08-19T02:22:45;17.00;99.90
18229;DHT22;9239;50.932;3.142;2022-08-19T02:25:14;17.00;99.90
18229;DHT22;9239;50.932;3.142;2022-08-19T02:27:41;17.10;99.90
18229;DHT22;9239;50.932;3.142;2022-08-19T02:30:13;17.10;99.90
18229;DHT22;9239;50.932;3.142;2022-08-19T02:32:41;17.10;99.90
18229;DHT22;9239;50.932;3.142;2022-08-19T02:35:08;17.10;99.90
18229;DHT22;9239;50.932;3.142;2022-08-19T02:37:35;17.10;99.90
18229;DHT22;9239;50.932;3.142;2022-08-19T02:40:20;17.10;99.90
18229;DHT22;9239;50.932;3.142;2022-08-19T02:42:47;17.10;99.90
18229;DHT22;9239;50.932;3.142;2022-08-19T02:45:15;17.10;99.90
18229;DHT22;9239;50.932;3.142;2022-08-19T02:47:42;17.00;99.90
18229;DHT22;9239;50.932;3.142;2022-08-19T02:50:09;17.00;99.90
18229;DHT22;9239;50.932;3.142;2022-08-19T02:52:36;17.10;99.90
18229;DHT22;9239;50.932;3.142;2022-08-19T02:55:05;17.10;99.90
18229;DHT22;9239;50.932;3.142;2022-08-19T02:57:32;17.10;99.90
18229;DHT22;9239;50.932;3.142;2022-08-19T03:00:00;17.10;99.90
18229;DHT22;9239;50.932;3.142;2022-08-19T03:02:28;17.10;99.90
18229;DHT22;9239;50.932;3.142;2022-08-19T03:04:56;17.10;99.90
18229;DHT22;9239;50.932;3.142;2022-08-19T03:07:23;17.10;99.90
18229;DHT22;9239;50.932;3.142;2022-08-19T03:09:50;17.10;99.90
18229;DHT22;9239;50.932;3.142;2022-08-19T03:12:16;17.10;99.90
18229;DHT22;9239;50.932;3.142;2022-08-19T03:14:43;17.20;99.90
18229;DHT22;9239;50.932;3.142;2022-08-19T03:17:11;17.20;99.90
18229;DHT22;9239;50.932;3.142;2022-08-19T03:19:39;17.20;99.90
18229;DHT22;9239;50.932;3.142;2022-08-19T03:22:06;17.20;99.90
18229;DHT22;9239;50.932;3.142;2022-08-19T03:24:34;17.20;99.90
18229;DHT22;9239;50.932;3.142;2022-08-19T03:27:01;17.20;99.90
18229;DHT22;9239;50.932;3.142;2022-08-19T03:29:29;17.20;99.90
18229;DHT22;9239;50.932;3.142;2022-08-19T03:31:57;17.20;99.90
18229;DHT22;9239;50.932;3.142;2022-08-19T03:34:28;17.20;99.90
18229;DHT22;9239;50.932;3.142;2022-08-19T03:36:59;17.20;99.90
18229;DHT22;9239;50.932;3.142;2022-08-19T03:39:29;17.20;99.90
18229;DHT22;9239;50.932;3.142;2022-08-19T03:41:56;17.20;99.90
18229;DHT22;9239;50.932;3.142;2022-08-19T03:44:28;17.20;99.90
18229;DHT22;9239;50.932;3.142;2022-08-19T03:46:58;17.10;99.90
18229;DHT22;9239;50.932;3.142;2022-08-19T03:49:28;17.10;99.90
18229;DHT22;9239;50.932;3.142;2022-08-19T03:51:58;17.10;99.90
18229;DHT22;9239;50.932;3.142;2022-08-19T03:54:27;17.20;99.90
18229;DHT22;9239;50.932;3.142;2022-08-19T03:56:55;17.20;99.90
18229;DHT22;9239;50.932;3.142;2022-08-19T03:59:24;17.20;99.90
18229;DHT22;9239;50.932;3.142;2022-08-19T04:01:52;17.20;99.90
18229;DHT22;9239;50.932;3.142;2022-08-19T04:04:19;17.20;99.90
18229;DHT22;9239;50.932;3.142;2022-08-19T04:06:47;17.20;99.90
18229;DHT22;9239;50.932;3.142;2022-08-19T04:09:15;17.20;99.90
18229;DHT22;9239;50.932;3.142;2022-08-19T04:11:45;17.20;99.90
18229;DHT22;9239;50.932;3.142;2022-08-19T04:14:14;17.20;99.90
18229;DHT22;9239;50.932;3.142;2022-08-19T04:16:42;17.10;99.90
18229;DHT22;9239;50.932;3.142;2022-08-19T04:19:10;17.10;99.90
18229;DHT22;9239;50.932;3.142;2022-08-19T04:21:38;17.20;99.90
18229;DHT22;9239;50.932;3.142;2022-08-19T04:24:05;17.20;99.90
18229;DHT22;9239;50.932;3.142;2022-08-19T04:26:35;17.20;99.90
18229;DHT22;9239;50.932;3.142;2022-08-19T04:29:08;17.20;99.90
18229;DHT22;9239;50.932;3.142;2022-08-19T04:31:35;17.20;99.90
18229;DHT22;9239;50.932;3.142;2022-08-19T04:34:05;17.30;99.90
18229;DHT22;9239;50.932;3.142;2022-08-19T04:36:34;17.40;99.90
18229;DHT22;9239;50.932;3.142;2022-08-19T04:39:05;17.40;99.90
18229;DHT22;9239;50.932;3.142;2022-08-19T04:41:34;17.50;99.90
18229;DHT22;9239;50.932;3.142;2022-08-19T04:44:18;17.50;99.90
18229;DHT22;9239;50.932;3.142;2022-08-19T04:46:46;17.60;99.90
18229;DHT22;9239;50.932;3.142;2022-08-19T04:49:13;17.60;99.90
18229;DHT22;9239;50.932;3.142;2022-08-19T04:51:44;17.60;99.90
18229;DHT22;9239;50.932;3.142;2022-08-19T04:54:13;17.60;99.90
18229;DHT22;9239;50.932;3.142;2022-08-19T04:56:41;17.70;99.90
18229;DHT22;9239;50.932;3.142;2022-08-19T04:59:09;17.80;99.90
18229;DHT22;9239;50.932;3.142;2022-08-19T05:01:37;17.90;99.90
18229;DHT22;9239;50.932;3.142;2022-08-19T05:04:05;18.00;99.90
18229;DHT22;9239;50.932;3.142;2022-08-19T05:06:33;18.10;99.90
18229;DHT22;9239;50.932;3.142;2022-08-19T05:09:02;18.10;99.90
18229;DHT22;9239;50.932;3.142;2022-08-19T05:11:32;18.20;99.90
18229;DHT22;9239;50.932;3.142;2022-08-19T05:14:00;18.30;99.90
18229;DHT22;9239;50.932;3.142;2022-08-19T05:16:28;18.30;99.90
18229;DHT22;9239;50.932;3.142;2022-08-19T05:18:55;18.40;99.90
18229;DHT22;9239;50.932;3.142;2022-08-19T05:21:41;18.40;99.90
18229;DHT22;9239;50.932;3.142;2022-08-19T05:24:26;18.50;99.90
18229;DHT22;9239;50.932;3.142;2022-08-19T05:26:54;18.60;99.90
18229;DHT22;9239;50.932;3.142;2022-08-19T05:29:26;18.60;99.90
18229;DHT22;9239;50.932;3.142;2022-08-19T05:31:54;18.60;99.90
18229;DHT22;9239;50.932;3.142;2022-08-19T05:34:22;18.70;99.90
18229;DHT22;9239;50.932;3.142;2022-08-19T05:36:55;18.70;99.90
18229;DHT22;9239;50.932;3.142;2022-08-19T05:39:25;18.70;99.90
18229;DHT22;9239;50.932;3.142;2022-08-19T05:41:53;18.70;99.90
18229;DHT22;9239;50.932;3.142;2022-08-19T05:44:23;18.70;99.90
18229;DHT22;9239;50.932;3.142;2022-08-19T05:46:52;18.80;99.90
18229;DHT22;9239;50.932;3.142;2022-08-19T05:49:21;19.10;99.90
18229;DHT22;9239;50.932;3.142;2022-08-19T05:51:49;19.80;99.90
18229;DHT22;9239;50.932;3.142;2022-08-19T05:54:16;20.40;99.90
18229;DHT22;9239;50.932;3.142;2022-08-19T05:56:44;20.80;99.90
18229;DHT22;9239;50.932;3.142;2022-08-19T05:59:14;20.90;99.90
18229;DHT22;9239;50.932;3.142;2022-08-19T06:01:45;20.60;99.90
18229;DHT22;9239;50.932;3.142;2022-08-19T06:04:13;20.50;99.90
18229;DHT22;9239;50.932;3.142;2022-08-19T06:06:40;20.20;99.90
18229;DHT22;9239;50.932;3.142;2022-08-19T06:09:08;20.00;99.90
18229;DHT22;9239;50.932;3.142;2022-08-19T06:11:37;19.90;99.90
18229;DHT22;9239;50.932;3.142;2022-08-19T06:14:08;19.90;99.90
18229;DHT22;9239;50.932;3.142;2022-08-19T06:16:37;19.80;99.90
18229;DHT22;9239;50.932;3.142;2022-08-19T06:19:06;19.70;99.90
18229;DHT22;9239;50.932;3.142;2022-08-19T06:21:36;19.70;99.90
18229;DHT22;9239;50.932;3.142;2022-08-19T06:24:05;19.70;99.90
18229;DHT22;9239;50.932;3.142;2022-08-19T06:26:33;19.70;99.90
18229;DHT22;9239;50.932;3.142;2022-08-19T06:29:01;19.80;99.90
18229;DHT22;9239;50.932;3.142;2022-08-19T06:31:30;19.80;99.90
18229;DHT22;9239;50.932;3.142;2022-08-19T06:33:59;19.90;99.90
18229;DHT22;9239;50.932;3.142;2022-08-19T06:36:29;19.90;99.90
18229;DHT22;9239;50.932;3.142;2022-08-19T06:39:02;19.90;99.90
18229;DHT22;9239;50.932;3.142;2022-08-19T06:41:30;20.00;99.90
18229;DHT22;9239;50.932;3.142;2022-08-19T06:43:57;20.00;99.90
18229;DHT22;9239;50.932;3.142;2022-08-19T06:46:25;20.00;99.90
18229;DHT22;9239;50.932;3.142;2022-08-19T06:48:52;20.00;99.90
18229;DHT22;9239;50.932;3.142;2022-08-19T06:51:21;20.00;99.90
18229;DHT22;9239;50.932;3.142;2022-08-19T06:53:52;20.00;99.90
18229;DHT22;9239;50.932;3.142;2022-08-19T06:56:25;20.00;99.90
18229;DHT22;9239;50.932;3.142;2022-08-19T06:58:56;20.00;99.90
18229;DHT22;9239;50.932;3.142;2022-08-19T07:01:23;20.00;99.90
18229;DHT22;9239;50.932;3.142;2022-08-19T07:03:50;20.10;99.90
18229;DHT22;9239;50.932;3.142;2022-08-19T07:06:18;20.10;99.90
18229;DHT22;9239;50.932;3.142;2022-08-19T07:08:46;20.00;99.90
18229;DHT22;9239;50.932;3.142;2022-08-19T07:11:16;20.00;99.90
18229;DHT22;9239;50.932;3.142;2022-08-19T07:13:45;20.00;99.90
18229;DHT22;9239;50.932;3.142;2022-08-19T07:16:16;20.10;99.90
18229;DHT22;9239;50.932;3.142;2022-08-19T07:18:44;20.10;99.90
18229;DHT22;9239;50.932;3.142;2022-08-19T07:21:14;20.10;99.90
18229;DHT22;9239;50.932;3.142;2022-08-19T07:23:42;20.10;99.90
18229;DHT22;9239;50.932;3.142;2022-08-19T07:26:12;20.20;99.90
18229;DHT22;9239;50.932;3.142;2022-08-19T07:28:39;20.30;99.90
18229;DHT22;9239;50.932;3.142;2022-08-19T07:31:10;20.30;99.90
18229;DHT22;9239;50.932;3.142;2022-08-19T07:33:39;20.30;99.90
18229;DHT22;9239;50.932;3.142;2022-08-19T07:36:09;20.40;99.90
18229;DHT22;9239;50.932;3.142;2022-08-19T07:38:39;20.30;99.90
18229;DHT22;9239;50.932;3.142;2022-08-19T07:41:06;20.40;99.90
18229;DHT22;9239;50.932;3.142;2022-08-19T07:43:34;20.40;99.90
18229;DHT22;9239;50.932;3.142;2022-08-19T07:46:01;20.40;99.90
18229;DHT22;9239;50.932;3.142;2022-08-19T07:48:30;20.40;99.90
18229;DHT22;9239;50.932;3.142;2022-08-19T07:50:59;20.50;99.90
18229;DHT22;9239;50.932;3.142;2022-08-19T07:53:28;20.60;99.90
18229;DHT22;9239;50.932;3.142;2022-08-19T07:55:56;20.50;99.90
18229;DHT22;9239;50.932;3.142;2022-08-19T07:58:31;20.60;99.90
18229;DHT22;9239;50.932;3.142;2022-08-19T08:00:59;20.60;99.90
18229;DHT22;9239;50.932;3.142;2022-08-19T08:03:28;20.60;99.90
18229;DHT22;9239;50.932;3.142;2022-08-19T08:06:10;20.60;99.90
18229;DHT22;9239;50.932;3.142;2022-08-19T08:08:55;20.80;99.90
18229;DHT22;9239;50.932;3.142;2022-08-19T08:11:49;20.80;99.90
18229;DHT22;9239;50.932;3.142;2022-08-19T08:14:19;21.00;99.90
18229;DHT22;9239;50.932;3.142;2022-08-19T08:16:48;21.10;99.90
18229;DHT22;9239;50.932;3.142;2022-08-19T08:19:17;21.20;99.90
18229;DHT22;9239;50.932;3.142;2022-08-19T08:21:47;21.20;99.90
18229;DHT22;9239;50.932;3.142;2022-08-19T08:24:14;21.30;99.90
18229;DHT22;9239;50.932;3.142;2022-08-19T08:26:41;21.40;99.90
18229;DHT22;9239;50.932;3.142;2022-08-19T08:29:09;21.50;99.90
18229;DHT22;9239;50.932;3.142;2022-08-19T08:31:37;21.70;99.90
18229;DHT22;9239;50.932;3.142;2022-08-19T08:34:04;21.70;99.90
18229;DHT22;9239;50.932;3.142;2022-08-19T08:36:31;21.60;99.90
18229;DHT22;9239;50.932;3.142;2022-08-19T08:39:00;21.60;99.90
18229;DHT22;9239;50.932;3.142;2022-08-19T08:41:32;21.60;99.90
18229;DHT22;9239;50.932;3.142;2022-08-19T08:44:02;21.70;99.90
18229;DHT22;9239;50.932;3.142;2022-08-19T08:46:35;21.70;99.90
18229;DHT22;9239;50.932;3.142;2022-08-19T08:49:20;21.80;99.90
18229;DHT22;9239;50.932;3.142;2022-08-19T08:51:53;21.90;99.90
18229;DHT22;9239;50.932;3.142;2022-08-19T08:54:30;22.10;99.90
18229;DHT22;9239;50.932;3.142;2022-08-19T08:56:58;22.20;99.90
18229;DHT22;9239;50.932;3.142;2022-08-19T08:59:29;22.30;99.90
18229;DHT22;9239;50.932;3.142;2022-08-19T09:01:58;22.40;99.90
18229;DHT22;9239;50.932;3.142;2022-08-19T09:04:25;22.40;99.90
18229;DHT22;9239;50.932;3.142;2022-08-19T09:06:56;22.50;99.90
18229;DHT22;9239;50.932;3.142;2022-08-19T09:09:32;22.50;99.90
18229;DHT22;9239;50.932;3.142;2022-08-19T09:12:06;22.50;99.90
18229;DHT22;9239;50.932;3.142;2022-08-19T09:14:41;22.60;99.90
18229;DHT22;9239;50.932;3.142;2022-08-19T09:17:12;22.60;99.90
18229;DHT22;9239;50.932;3.142;2022-08-19T09:19:49;22.70;99.90
18229;DHT22;9239;50.932;3.142;2022-08-19T09:22:16;22.60;99.90
18229;DHT22;9239;50.932;3.142;2022-08-19T09:24:48;22.50;99.90
18229;DHT22;9239;50.932;3.142;2022-08-19T09:27:16;22.40;99.90
18229;DHT22;9239;50.932;3.142;2022-08-19T09:29:46;22.20;99.90
18229;DHT22;9239;50.932;3.142;2022-08-19T09:32:14;22.10;99.90
18229;DHT22;9239;50.932;3.142;2022-08-19T09:34:41;22.00;99.90
18229;DHT22;9239;50.932;3.142;2022-08-19T09:37:09;22.00;99.90
18229;DHT22;9239;50.932;3.142;2022-08-19T09:39:36;22.00;99.90
18229;DHT22;9239;50.932;3.142;2022-08-19T09:42:05;22.00;99.90
18229;DHT22;9239;50.932;3.142;2022-08-19T09:44:36;22.00;99.90
18229;DHT22;9239;50.932;3.142;2022-08-19T09:47:04;22.00;99.90
18229;DHT22;9239;50.932;3.142;2022-08-19T09:49:31;22.10;99.90
18229;DHT22;9239;50.932;3.142;2022-08-19T09:51:58;22.10;99.90
18229;DHT22;9239;50.932;3.142;2022-08-19T09:54:25;22.10;99.90
18229;DHT22;9239;50.932;3.142;2022-08-19T09:56:53;22.10;99.90
18229;DHT22;9239;50.932;3.142;2022-08-19T09:59:22;22.20;99.90
18229;DHT22;9239;50.932;3.142;2022-08-19T10:01:49;22.30;99.90
18229;DHT22;9239;50.932;3.142;2022-08-19T10:04:16;22.60;99.90
18229;DHT22;9239;50.932;3.142;2022-08-19T10:06:43;22.80;99.90
18229;DHT22;9239;50.932;3.142;2022-08-19T10:09:14;23.10;99.90
18229;DHT22;9239;50.932;3.142;2022-08-19T10:11:43;23.20;99.90
18229;DHT22;9239;50.932;3.142;2022-08-19T10:14:14;23.10;99.90
18229;DHT22;9239;50.932;3.142;2022-08-19T10:16:43;22.80;99.90
18229;DHT22;9239;50.932;3.142;2022-08-19T10:19:10;22.80;99.90
18229;DHT22;9239;50.932;3.142;2022-08-19T10:21:37;22.70;99.90
18229;DHT22;9239;50.932;3.142;2022-08-19T10:24:05;22.80;99.90
18229;DHT22;9239;50.932;3.142;2022-08-19T10:26:34;22.80;99.90
18229;DHT22;9239;50.932;3.142;2022-08-19T10:29:03;22.90;99.90
18229;DHT22;9239;50.932;3.142;2022-08-19T10:31:32;22.80;99.90
18229;DHT22;9239;50.932;3.142;2022-08-19T10:34:01;22.90;99.90
18229;DHT22;9239;50.932;3.142;2022-08-19T10:36:31;23.00;99.90
18229;DHT22;9239;50.932;3.142;2022-08-19T10:39:00;22.90;99.90
18229;DHT22;9239;50.932;3.142;2022-08-19T10:41:29;22.90;99.90
18229;DHT22;9239;50.932;3.142;2022-08-19T10:43:58;22.80;99.90
18229;DHT22;9239;50.932;3.142;2022-08-19T10:46:26;22.80;99.90
18229;DHT22;9239;50.932;3.142;2022-08-19T10:48:54;22.90;99.90
18229;DHT22;9239;50.932;3.142;2022-08-19T10:51:22;23.10;99.90
18229;DHT22;9239;50.932;3.142;2022-08-19T10:54:06;23.20;99.90
18229;DHT22;9239;50.932;3.142;2022-08-19T10:56:34;23.20;99.90
18229;DHT22;9239;50.932;3.142;2022-08-19T10:59:20;23.30;99.90
18229;DHT22;9239;50.932;3.142;2022-08-19T11:01:48;23.50;99.90
18229;DHT22;9239;50.932;3.142;2022-08-19T11:04:16;23.70;99.90
18229;DHT22;9239;50.932;3.142;2022-08-19T11:06:45;23.80;99.90
18229;DHT22;9239;50.932;3.142;2022-08-19T11:09:13;23.90;99.90
18229;DHT22;9239;50.932;3.142;2022-08-19T11:11:40;24.00;99.90
18229;DHT22;9239;50.932;3.142;2022-08-19T11:14:09;24.00;99.90
18229;DHT22;9239;50.932;3.142;2022-08-19T11:16:37;23.90;99.90
18229;DHT22;9239;50.932;3.142;2022-08-19T11:19:05;23.90;99.90
18229;DHT22;9239;50.932;3.142;2022-08-19T11:21:35;23.80;99.90
18229;DHT22;9239;50.932;3.142;2022-08-19T11:24:07;23.90;99.90
18229;DHT22;9239;50.932;3.142;2022-08-19T11:26:35;23.90;99.90
18229;DHT22;9239;50.932;3.142;2022-08-19T11:29:04;24.10;99.90
18229;DHT22;9239;50.932;3.142;2022-08-19T11:31:33;24.20;99.90
18229;DHT22;9239;50.932;3.142;2022-08-19T11:34:02;24.30;99.90
18229;DHT22;9239;50.932;3.142;2022-08-19T11:36:31;24.30;99.90
18229;DHT22;9239;50.932;3.142;2022-08-19T11:38:58;24.20;99.90
18229;DHT22;9239;50.932;3.142;2022-08-19T11:41:27;24.10;99.90
18229;DHT22;9239;50.932;3.142;2022-08-19T11:43:54;23.90;99.90
18229;DHT22;9239;50.932;3.142;2022-08-19T11:46:22;23.80;99.90
18229;DHT22;9239;50.932;3.142;2022-08-19T11:48:50;23.70;99.90
18229;DHT22;9239;50.932;3.142;2022-08-19T11:51:18;23.80;99.90
18229;DHT22;9239;50.932;3.142;2022-08-19T11:53:46;23.50;99.90
18229;DHT22;9239;50.932;3.142;2022-08-19T11:56:14;23.20;99.90
18229;DHT22;9239;50.932;3.142;2022-08-19T11:58:43;22.90;99.90
18229;DHT22;9239;50.932;3.142;2022-08-19T12:01:10;22.70;99.90
18229;DHT22;9239;50.932;3.142;2022-08-19T12:03:39;22.60;99.90
18229;DHT22;9239;50.932;3.142;2022-08-19T12:06:07;22.20;99.90
18229;DHT22;9239;50.932;3.142;2022-08-19T12:08:36;21.90;99.90
18229;DHT22;9239;50.932;3.142;2022-08-19T12:11:03;21.70;99.90
18229;DHT22;9239;50.932;3.142;2022-08-19T12:13:34;21.50;99.90
18229;DHT22;9239;50.932;3.142;2022-08-19T12:16:07;21.20;99.90
18229;DHT22;9239;50.932;3.142;2022-08-19T12:18:38;21.20;99.90
18229;DHT22;9239;50.932;3.142;2022-08-19T12:21:07;21.20;99.90
18229;DHT22;9239;50.932;3.142;2022-08-19T12:23:35;21.20;99.90
18229;DHT22;9239;50.932;3.142;2022-08-19T12:26:03;21.40;99.90
18229;DHT22;9239;50.932;3.142;2022-08-19T12:28:31;21.60;99.90
18229;DHT22;9239;50.932;3.142;2022-08-19T12:30:58;21.80;99.90
18229;DHT22;9239;50.932;3.142;2022-08-19T12:33:26;22.10;99.90
18229;DHT22;9239;50.932;3.142;2022-08-19T12:35:54;22.30;99.90
18229;DHT22;9239;50.932;3.142;2022-08-19T12:38:21;22.50;99.90
18229;DHT22;9239;50.932;3.142;2022-08-19T12:40:49;22.70;99.90
18229;DHT22;9239;50.932;3.142;2022-08-19T12:43:17;22.70;99.90
18229;DHT22;9239;50.932;3.142;2022-08-19T12:45:45;22.80;99.90
18229;DHT22;9239;50.932;3.142;2022-08-19T12:48:12;23.10;99.90
18229;DHT22;9239;50.932;3.142;2022-08-19T12:50:41;23.40;99.90
18229;DHT22;9239;50.932;3.142;2022-08-19T12:53:11;23.50;99.90
18229;DHT22;9239;50.932;3.142;2022-08-19T12:55:38;23.50;99.90
18229;DHT22;9239;50.932;3.142;2022-08-19T12:58:05;23.30;99.90
18229;DHT22;9239;50.932;3.142;2022-08-19T13:00:32;23.40;99.90
18229;DHT22;9239;50.932;3.142;2022-08-19T13:02:59;23.50;99.90
18229;DHT22;9239;50.932;3.142;2022-08-19T13:05:29;23.80;99.90
18229;DHT22;9239;50.932;3.142;2022-08-19T13:07:58;24.00;99.90
18229;DHT22;9239;50.932;3.142;2022-08-19T13:10:30;24.40;99.90
18229;DHT22;9239;50.932;3.142;2022-08-19T13:13:01;24.50;99.90
18229;DHT22;9239;50.932;3.142;2022-08-19T13:15:29;24.60;99.90
18229;DHT22;9239;50.932;3.142;2022-08-19T13:17:57;24.80;99.90
18229;DHT22;9239;50.932;3.142;2022-08-19T13:20:25;24.70;99.90
18229;DHT22;9239;50.932;3.142;2022-08-19T13:22:52;24.60;99.90
18229;DHT22;9239;50.932;3.142;2022-08-19T13:25:20;24.40;99.90
18229;DHT22;9239;50.932;3.142;2022-08-19T13:27:48;24.20;99.90
18229;DHT22;9239;50.932;3.142;2022-08-19T13:30:17;24.10;99.90
18229;DHT22;9239;50.932;3.142;2022-08-19T13:33:02;24.00;99.90
18229;DHT22;9239;50.932;3.142;2022-08-19T13:35:44;24.00;99.90
18229;DHT22;9239;50.932;3.142;2022-08-19T13:38:13;24.00;99.90
18229;DHT22;9239;50.932;3.142;2022-08-19T13:40:42;24.00;99.90
18229;DHT22;9239;50.932;3.142;2022-08-19T13:43:09;24.10;99.90
18229;DHT22;9239;50.932;3.142;2022-08-19T13:45:36;24.30;99.90
18229;DHT22;9239;50.932;3.142;2022-08-19T13:48:07;24.50;99.90
18229;DHT22;9239;50.932;3.142;2022-08-19T13:50:38;24.50;99.90
18229;DHT22;9239;50.932;3.142;2022-08-19T13:53:07;24.60;99.90
18229;DHT22;9239;50.932;3.142;2022-08-19T13:55:34;24.80;99.90
18229;DHT22;9239;50.932;3.142;2022-08-19T13:58:03;25.10;99.90
18229;DHT22;9239;50.932;3.142;2022-08-19T14:00:33;25.10;99.90
18229;DHT22;9239;50.932;3.142;2022-08-19T14:03:01;25.00;99.90
18229;DHT22;9239;50.932;3.142;2022-08-19T14:05:29;25.00;99.90
18229;DHT22;9239;50.932;3.142;2022-08-19T14:07:56;25.00;99.90
18229;DHT22;9239;50.932;3.142;2022-08-19T14:10:24;25.00;99.90
18229;DHT22;9239;50.932;3.142;2022-08-19T14:12:53;25.10;99.90
18229;DHT22;9239;50.932;3.142;2022-08-19T14:15:22;25.10;99.90
18229;DHT22;9239;50.932;3.142;2022-08-19T14:17:50;25.10;99.90
18229;DHT22;9239;50.932;3.142;2022-08-19T14:20:17;25.20;99.90
18229;DHT22;9239;50.932;3.142;2022-08-19T14:22:46;25.30;99.90
18229;DHT22;9239;50.932;3.142;2022-08-19T14:25:15;25.30;99.90
18229;DHT22;9239;50.932;3.142;2022-08-19T14:27:43;25.30;99.90
18229;DHT22;9239;50.932;3.142;2022-08-19T14:30:12;25.20;99.90
18229;DHT22;9239;50.932;3.142;2022-08-19T14:32:43;25.10;99.90
18229;DHT22;9239;50.932;3.142;2022-08-19T14:35:12;24.90;99.90
18229;DHT22;9239;50.932;3.142;2022-08-19T14:37:40;24.80;99.90
18229;DHT22;9239;50.932;3.142;2022-08-19T14:40:08;24.80;99.90
18229;DHT22;9239;50.932;3.142;2022-08-19T14:42:36;24.70;99.90
18229;DHT22;9239;50.932;3.142;2022-08-19T14:45:04;24.70;99.90
18229;DHT22;9239;50.932;3.142;2022-08-19T14:47:31;24.70;99.90
18229;DHT22;9239;50.932;3.142;2022-08-19T14:50:00;24.60;99.90
18229;DHT22;9239;50.932;3.142;2022-08-19T14:52:27;24.60;99.90
18229;DHT22;9239;50.932;3.142;2022-08-19T14:54:54;24.60;99.90
18229;DHT22;9239;50.932;3.142;2022-08-19T14:57:21;24.60;99.90
18229;DHT22;9239;50.932;3.142;2022-08-19T14:59:47;24.60;99.90
18229;DHT22;9239;50.932;3.142;2022-08-19T15:02:15;24.60;99.90
18229;DHT22;9239;50.932;3.142;2022-08-19T15:04:42;24.50;99.90
18229;DHT22;9239;50.932;3.142;2022-08-19T15:07:10;24.40;99.90
18229;DHT22;9239;50.932;3.142;2022-08-19T15:09:37;24.40;99.90
18229;DHT22;9239;50.932;3.142;2022-08-19T15:12:04;24.50;99.90
18229;DHT22;9239;50.932;3.142;2022-08-19T15:14:31;24.60;99.90
18229;DHT22;9239;50.932;3.142;2022-08-19T15:17:00;24.60;99.90
18229;DHT22;9239;50.932;3.142;2022-08-19T15:19:28;24.70;99.90
18229;DHT22;9239;50.932;3.142;2022-08-19T15:21:55;24.70;99.90
18229;DHT22;9239;50.932;3.142;2022-08-19T15:24:25;24.60;99.90
18229;DHT22;9239;50.932;3.142;2022-08-19T15:26:52;24.60;99.90
18229;DHT22;9239;50.932;3.142;2022-08-19T15:29:21;24.50;99.90
18229;DHT22;9239;50.932;3.142;2022-08-19T15:31:50;24.40;99.90
18229;DHT22;9239;50.932;3.142;2022-08-19T15:34:17;24.20;99.90
18229;DHT22;9239;50.932;3.142;2022-08-19T15:36:44;24.20;99.90
18229;DHT22;9239;50.932;3.142;2022-08-19T15:39:11;24.10;99.90
18229;DHT22;9239;50.932;3.142;2022-08-19T15:41:41;24.10;99.90
18229;DHT22;9239;50.932;3.142;2022-08-19T15:44:10;24.00;99.90
18229;DHT22;9239;50.932;3.142;2022-08-19T15:46:40;24.00;99.90
18229;DHT22;9239;50.932;3.142;2022-08-19T15:49:08;24.00;99.90
18229;DHT22;9239;50.932;3.142;2022-08-19T15:51:36;24.00;99.90
18229;DHT22;9239;50.932;3.142;2022-08-19T15:54:06;24.00;99.90
18229;DHT22;9239;50.932;3.142;2022-08-19T15:56:33;24.10;99.90